Time;durP1;ratioP1;P1;durP2;ratioP2;P2;SDS_P1;SDS_P2;PMS_P1;PMS_P2;Temp;Humidity;BMP_temperature;BMP_pressure;BME280_temperature;BME280_humidity;BME280_pressure;Samples;Min_cycle;Max_cycle;Signal;HPM_P1;HPM_P2
2023/08/06 00:01:57;;;;;;;;;;;13.50;99.90;;;;;;5009184;28;19921;-61
2023/08/06 00:04:24;;;;;;;;;;;13.50;99.90;;;;;;5002199;28;20007;-62
2023/08/06 00:06:50;;;;;;;;;;;13.50;99.90;;;;;;5009670;28;19922;-61
2023/08/06 00:09:17;;;;;;;;;;;13.50;99.90;;;;;;4999883;28;19921;-62
2023/08/06 00:11:46;;;;;;;;;;;13.40;99.90;;;;;;5009239;28;19944;-61
2023/08/06 00:14:15;;;;;;;;;;;13.40;99.90;;;;;;5003072;28;19929;-61
2023/08/06 00:16:45;;;;;;;;;;;13.50;99.90;;;;;;5007898;28;19921;-61
2023/08/06 00:19:12;;;;;;;;;;;13.50;99.90;;;;;;4999085;28;19930;-61
2023/08/06 00:21:38;;;;;;;;;;;13.40;99.90;;;;;;4984169;28;20431;-62
2023/08/06 00:24:05;;;;;;;;;;;13.40;99.90;;;;;;4990398;28;19929;-62
2023/08/06 00:26:32;;;;;;;;;;;13.40;99.90;;;;;;4991083;28;19921;-60
2023/08/06 00:28:59;;;;;;;;;;;13.40;99.90;;;;;;4989606;28;19922;-62
2023/08/06 00:31:25;;;;;;;;;;;13.40;99.90;;;;;;4994321;28;20561;-62
2023/08/06 00:33:52;;;;;;;;;;;13.40;99.90;;;;;;4989913;28;19921;-61
2023/08/06 00:36:19;;;;;;;;;;;13.40;99.90;;;;;;4989323;28;19951;-61
2023/08/06 00:38:45;;;;;;;;;;;13.40;99.90;;;;;;4989391;28;19957;-62
2023/08/06 00:41:12;;;;;;;;;;;13.40;99.90;;;;;;4988854;28;19980;-62
2023/08/06 00:43:39;;;;;;;;;;;13.40;99.90;;;;;;4989190;28;19922;-62
2023/08/06 00:46:05;;;;;;;;;;;13.40;99.90;;;;;;4988634;28;19976;-61
2023/08/06 00:48:32;;;;;;;;;;;13.40;99.90;;;;;;4987847;28;19922;-62
2023/08/06 00:50:59;;;;;;;;;;;13.40;99.90;;;;;;4990501;28;19925;-61
2023/08/06 00:53:26;;;;;;;;;;;13.40;99.90;;;;;;4989785;28;19976;-62
2023/08/06 00:55:52;;;;;;;;;;;13.40;99.90;;;;;;4990171;28;19976;-62
2023/08/06 00:58:19;;;;;;;;;;;13.30;99.90;;;;;;4989751;28;19921;-62
2023/08/06 01:00:46;;;;;;;;;;;13.30;99.90;;;;;;4989918;28;19975;-61
2023/08/06 01:03:13;;;;;;;;;;;13.30;99.90;;;;;;4990827;28;20009;-62
2023/08/06 01:05:39;;;;;;;;;;;13.20;99.90;;;;;;4987633;28;20012;-61
2023/08/06 01:08:24;;;;;;;;;;;13.20;99.90;;;;;;4989201;28;19921;-62
2023/08/06 01:11:10;;;;;;;;;;;13.20;99.90;;;;;;4990014;28;19922;-61
2023/08/06 01:13:46;;;;;;;;;;;13.10;99.90;;;;;;4987612;28;19968;-61
2023/08/06 01:16:17;;;;;;;;;;;13.00;99.90;;;;;;4989048;28;19997;-62
2023/08/06 01:18:46;;;;;;;;;;;13.00;99.90;;;;;;4990018;28;20428;-61
2023/08/06 01:21:13;;;;;;;;;;;13.00;99.90;;;;;;4989696;28;19948;-62
2023/08/06 01:23:40;;;;;;;;;;;12.90;99.90;;;;;;4993161;28;19946;-62
2023/08/06 01:26:09;;;;;;;;;;;12.90;99.90;;;;;;4989555;28;19929;-62
2023/08/06 01:28:56;;;;;;;;;;;12.90;99.90;;;;;;4989821;28;19922;-62
2023/08/06 01:31:33;;;;;;;;;;;12.90;99.90;;;;;;4989422;28;19965;-62
2023/08/06 01:34:01;;;;;;;;;;;12.80;99.90;;;;;;4990059;28;19980;-62
2023/08/06 01:36:28;;;;;;;;;;;12.80;99.90;;;;;;4989408;28;19929;-61
2023/08/06 01:38:54;;;;;;;;;;;12.80;99.90;;;;;;4989581;28;19922;-60
2023/08/06 01:41:21;;;;;;;;;;;12.70;99.90;;;;;;4988733;28;19925;-61
2023/08/06 01:43:48;;;;;;;;;;;12.70;99.90;;;;;;4989979;28;19925;-61
2023/08/06 01:46:14;;;;;;;;;;;12.70;99.90;;;;;;4989758;28;20021;-61
2023/08/06 01:48:41;;;;;;;;;;;12.60;99.90;;;;;;4988788;28;20338;-61
2023/08/06 01:51:08;;;;;;;;;;;12.60;99.90;;;;;;4990080;28;20524;-61
2023/08/06 01:53:35;;;;;;;;;;;12.60;99.90;;;;;;4989516;28;19922;-60
2023/08/06 01:56:01;;;;;;;;;;;12.60;99.90;;;;;;4989911;28;20368;-62
2023/08/06 01:58:28;;;;;;;;;;;12.60;99.90;;;;;;4642558;28;10000031;-61
2023/08/06 02:00:55;;;;;;;;;;;12.60;99.90;;;;;;4987456;28;19921;-60
2023/08/06 02:03:21;;;;;;;;;;;12.60;99.90;;;;;;4989594;28;19984;-61
2023/08/06 02:05:48;;;;;;;;;;;12.50;99.90;;;;;;4989863;28;19922;-61
2023/08/06 02:08:15;;;;;;;;;;;12.50;99.90;;;;;;4989257;28;20372;-62
2023/08/06 02:10:41;;;;;;;;;;;12.60;99.90;;;;;;4991235;28;20368;-61
2023/08/06 02:13:08;;;;;;;;;;;12.60;99.90;;;;;;4989230;28;19968;-61
2023/08/06 02:15:35;;;;;;;;;;;12.50;99.90;;;;;;4989439;28;19922;-61
2023/08/06 02:18:01;;;;;;;;;;;12.60;99.90;;;;;;4988926;28;20369;-61
2023/08/06 02:20:28;;;;;;;;;;;12.60;99.90;;;;;;4989987;28;20147;-61
2023/08/06 02:22:55;;;;;;;;;;;12.60;99.90;;;;;;4989010;28;19928;-61
2023/08/06 02:25:21;;;;;;;;;;;12.50;99.90;;;;;;4989497;28;19921;-61
2023/08/06 02:27:48;;;;;;;;;;;12.50;99.90;;;;;;4989416;28;19921;-61
2023/08/06 02:30:15;;;;;;;;;;;12.50;99.90;;;;;;4989217;28;20277;-60
2023/08/06 02:32:41;;;;;;;;;;;12.50;99.90;;;;;;4989599;28;19961;-61
2023/08/06 02:35:08;;;;;;;;;;;12.40;99.90;;;;;;4989086;28;20016;-61
2023/08/06 02:37:35;;;;;;;;;;;12.40;99.90;;;;;;4970236;28;19944;-61
2023/08/06 02:40:02;;;;;;;;;;;12.30;99.90;;;;;;4987778;28;19988;-61
2023/08/06 02:42:28;;;;;;;;;;;12.30;99.90;;;;;;4989381;28;19964;-61
2023/08/06 02:44:55;;;;;;;;;;;12.30;99.90;;;;;;4989157;28;20177;-61
2023/08/06 02:47:22;;;;;;;;;;;12.20;99.90;;;;;;4989793;28;19921;-61
2023/08/06 02:49:49;;;;;;;;;;;12.20;99.90;;;;;;4988851;28;19929;-61
2023/08/06 02:52:15;;;;;;;;;;;12.10;99.90;;;;;;4989590;28;20008;-61
2023/08/06 02:54:42;;;;;;;;;;;12.10;99.90;;;;;;4988661;28;19929;-61
2023/08/06 02:57:09;;;;;;;;;;;12.10;99.90;;;;;;4989685;28;20008;-61
2023/08/06 02:59:35;;;;;;;;;;;12.10;99.90;;;;;;4989056;28;19957;-61
2023/08/06 03:02:02;;;;;;;;;;;12.10;99.90;;;;;;4989171;28;20364;-61
2023/08/06 03:04:29;;;;;;;;;;;12.00;99.90;;;;;;4987694;28;19968;-60
2023/08/06 03:06:55;;;;;;;;;;;12.00;99.90;;;;;;4988963;28;20376;-61
2023/08/06 03:09:22;;;;;;;;;;;12.00;99.90;;;;;;4988943;28;19922;-60
2023/08/06 03:11:49;;;;;;;;;;;12.00;99.90;;;;;;4990281;28;19922;-61
2023/08/06 03:14:16;;;;;;;;;;;12.00;99.90;;;;;;4992591;28;19928;-61
2023/08/06 03:16:43;;;;;;;;;;;12.00;99.90;;;;;;4992302;28;19976;-62
2023/08/06 03:19:09;;;;;;;;;;;12.00;99.90;;;;;;4992365;28;19922;-62
2023/08/06 03:21:36;;;;;;;;;;;11.90;99.90;;;;;;4992320;28;20385;-61
2023/08/06 03:24:03;;;;;;;;;;;11.90;99.90;;;;;;4992826;28;19921;-61
2023/08/06 03:26:29;;;;;;;;;;;11.90;99.90;;;;;;4992101;28;20365;-61
2023/08/06 03:28:56;;;;;;;;;;;11.90;99.90;;;;;;4992677;28;19922;-62
2023/08/06 03:31:23;;;;;;;;;;;11.80;99.90;;;;;;4992651;28;19969;-61
2023/08/06 03:33:49;;;;;;;;;;;11.80;99.90;;;;;;4993184;28;19926;-60
2023/08/06 03:36:16;;;;;;;;;;;11.80;99.90;;;;;;4992541;28;19922;-63
2023/08/06 03:38:43;;;;;;;;;;;11.80;99.90;;;;;;4992349;28;19926;-60
2023/08/06 03:41:09;;;;;;;;;;;11.70;99.90;;;;;;4992020;28;20372;-61
2023/08/06 03:43:36;;;;;;;;;;;11.70;99.90;;;;;;4992304;28;20436;-60
2023/08/06 03:46:03;;;;;;;;;;;11.70;99.90;;;;;;4991930;28;19922;-60
2023/08/06 03:48:29;;;;;;;;;;;11.70;99.90;;;;;;4992395;28;19922;-60
2023/08/06 03:50:56;;;;;;;;;;;11.70;99.90;;;;;;4992848;28;20339;-61
2023/08/06 03:53:23;;;;;;;;;;;11.70;99.90;;;;;;4992384;28;19921;-60
2023/08/06 03:55:50;;;;;;;;;;;11.70;99.90;;;;;;4992386;28;19976;-60
2023/08/06 03:58:16;;;;;;;;;;;11.60;99.90;;;;;;4990769;28;19953;-60
2023/08/06 04:00:43;;;;;;;;;;;11.70;99.90;;;;;;4991972;28;19921;-60
2023/08/06 04:03:10;;;;;;;;;;;11.60;99.90;;;;;;4990324;28;19921;-60
2023/08/06 04:05:37;;;;;;;;;;;11.70;99.90;;;;;;4980247;28;19922;-61
2023/08/06 04:08:03;;;;;;;;;;;11.70;99.90;;;;;;4988627;28;20216;-61
2023/08/06 04:10:30;;;;;;;;;;;11.70;99.90;;;;;;4991925;28;19921;-61
2023/08/06 04:12:57;;;;;;;;;;;11.60;99.90;;;;;;4990215;28;20289;-60
2023/08/06 04:15:23;;;;;;;;;;;11.60;99.90;;;;;;4990877;28;19925;-60
2023/08/06 04:17:50;;;;;;;;;;;11.60;99.90;;;;;;4990992;28;19969;-61
2023/08/06 04:20:17;;;;;;;;;;;11.60;99.90;;;;;;4991923;28;20013;-61
2023/08/06 04:22:44;;;;;;;;;;;11.60;99.90;;;;;;4990612;28;20296;-61
2023/08/06 04:25:10;;;;;;;;;;;11.60;99.90;;;;;;4991264;28;20431;-60
2023/08/06 04:27:41;;;;;;;;;;;11.50;99.90;;;;;;4991057;28;19925;-61
2023/08/06 04:30:08;;;;;;;;;;;11.50;99.90;;;;;;4992249;28;19922;-60
2023/08/06 04:32:36;;;;;;;;;;;11.40;99.90;;;;;;4990998;28;19921;-60
2023/08/06 04:35:02;;;;;;;;;;;11.40;99.90;;;;;;4990937;28;20150;-61
2023/08/06 04:37:29;;;;;;;;;;;11.50;99.90;;;;;;4990243;28;20385;-61
2023/08/06 04:39:56;;;;;;;;;;;11.50;99.90;;;;;;4990867;28;20321;-60
2023/08/06 04:42:22;;;;;;;;;;;11.40;99.90;;;;;;4990738;28;19968;-60
2023/08/06 04:44:49;;;;;;;;;;;11.40;99.90;;;;;;4991302;28;19968;-61
2023/08/06 04:47:19;;;;;;;;;;;11.40;99.90;;;;;;4990941;28;19976;-60
2023/08/06 04:49:46;;;;;;;;;;;11.30;99.90;;;;;;4990538;28;19921;-60
2023/08/06 04:52:12;;;;;;;;;;;11.30;99.90;;;;;;4990274;28;19925;-61
2023/08/06 04:54:39;;;;;;;;;;;11.30;99.90;;;;;;4990474;28;20407;-61
2023/08/06 04:57:06;;;;;;;;;;;11.30;99.90;;;;;;4990247;28;19965;-62
2023/08/06 04:59:32;;;;;;;;;;;11.30;99.90;;;;;;4989918;28;19955;-61
2023/08/06 05:01:59;;;;;;;;;;;11.40;99.90;;;;;;4988909;28;20420;-60
2023/08/06 05:04:26;;;;;;;;;;;11.40;99.90;;;;;;4989274;28;19929;-61
2023/08/06 05:06:52;;;;;;;;;;;11.40;99.90;;;;;;4989141;28;19973;-61
2023/08/06 05:09:19;;;;;;;;;;;11.40;99.90;;;;;;4990823;28;19921;-61
2023/08/06 05:11:46;;;;;;;;;;;11.30;99.90;;;;;;4990672;28;20372;-60
2023/08/06 05:14:13;;;;;;;;;;;11.40;99.90;;;;;;4990513;28;19921;-62
2023/08/06 05:16:40;;;;;;;;;;;11.30;99.90;;;;;;4990226;28;19923;-61
2023/08/06 05:19:06;;;;;;;;;;;11.30;99.90;;;;;;4989872;28;20367;-61
2023/08/06 05:21:33;;;;;;;;;;;11.30;99.90;;;;;;4990465;28;20270;-61
2023/08/06 05:24:00;;;;;;;;;;;11.40;99.90;;;;;;4990085;28;20092;-60
2023/08/06 05:26:26;;;;;;;;;;;11.40;99.90;;;;;;4989603;28;20042;-61
2023/08/06 05:28:53;;;;;;;;;;;11.40;99.90;;;;;;4990457;28;19926;-61
2023/08/06 05:31:20;;;;;;;;;;;11.40;99.90;;;;;;4990368;28;20192;-61
2023/08/06 05:33:46;;;;;;;;;;;11.50;99.90;;;;;;4989980;28;20156;-61
2023/08/06 05:36:13;;;;;;;;;;;11.40;99.90;;;;;;4989574;28;19922;-60
2023/08/06 05:38:40;;;;;;;;;;;11.50;99.90;;;;;;4990244;28;19921;-61
2023/08/06 05:41:06;;;;;;;;;;;11.50;99.90;;;;;;4993041;28;20115;-60
2023/08/06 05:43:33;;;;;;;;;;;11.60;99.90;;;;;;4990714;28;19921;-60
2023/08/06 05:46:00;;;;;;;;;;;11.60;99.90;;;;;;4989775;28;19956;-60
2023/08/06 05:48:27;;;;;;;;;;;11.60;99.90;;;;;;4990241;28;19968;-63
2023/08/06 05:50:54;;;;;;;;;;;11.70;99.90;;;;;;4989817;28;19968;-60
2023/08/06 05:53:21;;;;;;;;;;;11.70;99.90;;;;;;4989763;28;19965;-61
2023/08/06 05:55:47;;;;;;;;;;;11.70;99.90;;;;;;4989538;28;19945;-61
2023/08/06 05:58:14;;;;;;;;;;;11.80;99.90;;;;;;4989788;28;19996;-61
2023/08/06 06:00:41;;;;;;;;;;;11.80;99.90;;;;;;4989932;28;19992;-61
2023/08/06 06:03:07;;;;;;;;;;;11.80;99.90;;;;;;4989072;28;20323;-61
2023/08/06 06:05:34;;;;;;;;;;;11.90;99.90;;;;;;4988743;28;19921;-61
2023/08/06 06:08:01;;;;;;;;;;;11.90;99.90;;;;;;4990199;28;19969;-60
2023/08/06 06:10:27;;;;;;;;;;;12.00;99.90;;;;;;4988519;28;19921;-61
2023/08/06 06:12:54;;;;;;;;;;;12.00;99.90;;;;;;4989170;28;19922;-61
2023/08/06 06:15:21;;;;;;;;;;;12.00;99.90;;;;;;4988926;28;19934;-60
2023/08/06 06:17:48;;;;;;;;;;;12.10;99.90;;;;;;4988592;28;20301;-61
2023/08/06 06:20:15;;;;;;;;;;;12.10;99.90;;;;;;4989486;28;19933;-61
2023/08/06 06:22:41;;;;;;;;;;;12.20;99.90;;;;;;4988995;28;20012;-61
2023/08/06 06:25:09;;;;;;;;;;;12.20;99.90;;;;;;4989890;28;19929;-61
2023/08/06 06:27:36;;;;;;;;;;;12.30;99.90;;;;;;4988850;28;19929;-62
2023/08/06 06:30:04;;;;;;;;;;;12.30;99.90;;;;;;4988759;28;20491;-61
2023/08/06 06:32:30;;;;;;;;;;;12.40;99.90;;;;;;4988449;28;19976;-61
2023/08/06 06:34:58;;;;;;;;;;;12.40;99.90;;;;;;4988963;28;19936;-62
2023/08/06 06:37:25;;;;;;;;;;;12.40;99.90;;;;;;4988874;28;19969;-61
2023/08/06 06:39:52;;;;;;;;;;;12.40;99.90;;;;;;4988669;28;19953;-61
2023/08/06 06:42:18;;;;;;;;;;;12.50;99.90;;;;;;4987939;28;20065;-62
2023/08/06 06:44:45;;;;;;;;;;;12.60;99.90;;;;;;4983393;28;19977;-62
2023/08/06 06:47:12;;;;;;;;;;;12.60;99.90;;;;;;4989054;28;19926;-61
2023/08/06 06:49:38;;;;;;;;;;;12.70;99.90;;;;;;4994413;28;20404;-61
2023/08/06 06:52:05;;;;;;;;;;;12.80;99.90;;;;;;4996947;28;20010;-60
2023/08/06 06:54:32;;;;;;;;;;;12.80;99.90;;;;;;4995599;28;19968;-61
2023/08/06 06:56:59;;;;;;;;;;;12.80;99.90;;;;;;4995117;28;19921;-60
2023/08/06 06:59:25;;;;;;;;;;;12.80;99.90;;;;;;4984193;28;19926;-60
2023/08/06 07:01:52;;;;;;;;;;;12.90;99.90;;;;;;4995492;28;19922;-64
2023/08/06 07:04:19;;;;;;;;;;;12.90;99.90;;;;;;4986125;28;19925;-60
2023/08/06 07:06:47;;;;;;;;;;;13.00;99.90;;;;;;4993061;28;19922;-60
2023/08/06 07:09:14;;;;;;;;;;;13.10;99.90;;;;;;4994066;28;19922;-62
2023/08/06 07:11:43;;;;;;;;;;;13.10;99.90;;;;;;4995352;28;19987;-60
2023/08/06 07:14:10;;;;;;;;;;;13.20;99.90;;;;;;4994150;28;19968;-60
2023/08/06 07:16:37;;;;;;;;;;;13.30;99.90;;;;;;4994152;28;20023;-61
2023/08/06 07:19:05;;;;;;;;;;;13.40;99.90;;;;;;4991094;28;19933;-61
2023/08/06 07:21:32;;;;;;;;;;;13.40;99.90;;;;;;4994443;28;19921;-62
2023/08/06 07:23:59;;;;;;;;;;;13.50;99.90;;;;;;4993744;28;20434;-61
2023/08/06 07:26:26;;;;;;;;;;;13.40;99.90;;;;;;4994578;28;19922;-62
2023/08/06 07:28:53;;;;;;;;;;;13.50;99.90;;;;;;4994606;28;19948;-61
2023/08/06 07:31:19;;;;;;;;;;;13.60;99.90;;;;;;4993176;28;20017;-61
2023/08/06 07:33:46;;;;;;;;;;;13.70;99.90;;;;;;4994677;28;19997;-61
2023/08/06 07:36:13;;;;;;;;;;;13.80;99.90;;;;;;4991704;28;20000;-61
2023/08/06 07:38:41;;;;;;;;;;;13.70;99.90;;;;;;4993940;28;19975;-61
2023/08/06 07:41:08;;;;;;;;;;;13.80;99.90;;;;;;4994958;28;19964;-61
2023/08/06 07:43:38;;;;;;;;;;;13.80;99.90;;;;;;4994484;28;19947;-61
2023/08/06 07:46:05;;;;;;;;;;;13.90;99.90;;;;;;4994439;28;20285;-61
2023/08/06 07:48:32;;;;;;;;;;;13.90;99.90;;;;;;4995128;28;20277;-61
2023/08/06 07:50:59;;;;;;;;;;;14.00;99.90;;;;;;4994018;28;20385;-61
2023/08/06 07:53:32;;;;;;;;;;;14.00;99.90;;;;;;4994698;28;20439;-61
2023/08/06 07:55:59;;;;;;;;;;;14.10;99.90;;;;;;4994627;28;19969;-62
2023/08/06 07:58:26;;;;;;;;;;;14.20;99.90;;;;;;4981014;28;19921;-62
2023/08/06 08:00:52;;;;;;;;;;;14.20;99.90;;;;;;4991021;28;20261;-61
2023/08/06 08:03:19;;;;;;;;;;;14.30;99.90;;;;;;4979775;28;20152;-62
2023/08/06 08:05:46;;;;;;;;;;;14.30;99.90;;;;;;4991061;28;19933;-62
2023/08/06 08:08:13;;;;;;;;;;;14.50;99.90;;;;;;4991558;28;19928;-62
2023/08/06 08:10:40;;;;;;;;;;;14.50;99.90;;;;;;4991040;28;19921;-61
2023/08/06 08:13:06;;;;;;;;;;;14.50;99.90;;;;;;4991522;28;19925;-62
2023/08/06 08:15:33;;;;;;;;;;;14.50;99.90;;;;;;4991165;28;20183;-62
2023/08/06 08:18:00;;;;;;;;;;;14.50;99.90;;;;;;4991427;28;19968;-62
2023/08/06 08:20:31;;;;;;;;;;;14.60;99.90;;;;;;4990659;28;19922;-62
2023/08/06 08:22:59;;;;;;;;;;;14.60;99.90;;;;;;4991063;28;20312;-62
2023/08/06 08:25:26;;;;;;;;;;;14.70;99.90;;;;;;4991141;28;19926;-61
2023/08/06 08:27:56;;;;;;;;;;;14.80;99.90;;;;;;4991392;28;19922;-61
2023/08/06 08:30:24;;;;;;;;;;;14.90;99.90;;;;;;4990855;28;19964;-63
2023/08/06 08:32:51;;;;;;;;;;;15.00;99.90;;;;;;4991380;28;19929;-62
2023/08/06 08:35:18;;;;;;;;;;;15.00;99.90;;;;;;4989862;28;19922;-60
2023/08/06 08:37:45;;;;;;;;;;;15.10;99.90;;;;;;4990712;28;19925;-60
2023/08/06 08:40:13;;;;;;;;;;;15.10;99.90;;;;;;4991308;28;20004;-58
2023/08/06 08:42:40;;;;;;;;;;;15.20;99.90;;;;;;4988952;28;19921;-58
2023/08/06 08:45:09;;;;;;;;;;;15.20;99.90;;;;;;4990996;28;19930;-59
2023/08/06 08:47:36;;;;;;;;;;;15.30;99.90;;;;;;4989898;28;19922;-59
2023/08/06 08:50:03;;;;;;;;;;;15.30;99.90;;;;;;4989754;28;19928;-59
2023/08/06 08:52:30;;;;;;;;;;;15.30;99.90;;;;;;4989377;28;19988;-59
2023/08/06 08:54:59;;;;;;;;;;;15.40;99.90;;;;;;4989832;28;20389;-59
2023/08/06 08:57:26;;;;;;;;;;;15.50;99.90;;;;;;4990564;28;19922;-60
2023/08/06 08:59:53;;;;;;;;;;;15.60;99.90;;;;;;4990050;28;19922;-59
2023/08/06 09:02:20;;;;;;;;;;;15.70;99.90;;;;;;4990296;28;20524;-59
2023/08/06 09:04:47;;;;;;;;;;;15.90;99.90;;;;;;4641941;28;9999977;-59
2023/08/06 09:07:16;;;;;;;;;;;16.00;99.90;;;;;;4986373;28;19932;-59
2023/08/06 09:09:42;;;;;;;;;;;15.90;99.90;;;;;;4985045;28;19930;-59
2023/08/06 09:12:14;;;;;;;;;;;15.80;99.90;;;;;;4984615;28;20019;-59
2023/08/06 09:14:40;;;;;;;;;;;15.90;99.90;;;;;;4986701;28;20037;-60
2023/08/06 09:17:07;;;;;;;;;;;16.00;99.90;;;;;;4987332;28;20336;-59
2023/08/06 09:19:34;;;;;;;;;;;16.10;99.90;;;;;;4987756;28;20269;-59
2023/08/06 09:22:01;;;;;;;;;;;16.30;99.90;;;;;;4987518;28;19930;-59
2023/08/06 09:24:28;;;;;;;;;;;16.30;99.90;;;;;;4987192;28;20007;-59
2023/08/06 09:26:54;;;;;;;;;;;16.30;99.90;;;;;;4986614;28;19969;-59
2023/08/06 09:29:21;;;;;;;;;;;16.30;99.90;;;;;;4985820;28;20426;-59
2023/08/06 09:31:48;;;;;;;;;;;16.40;99.90;;;;;;4984875;28;19975;-61
2023/08/06 09:34:18;;;;;;;;;;;16.50;99.90;;;;;;4987438;28;20049;-60
2023/08/06 09:36:50;;;;;;;;;;;16.40;99.90;;;;;;4987795;28;19947;-60
2023/08/06 09:39:35;;;;;;;;;;;16.60;99.90;;;;;;4986307;28;19969;-62
2023/08/06 09:42:02;;;;;;;;;;;16.70;99.90;;;;;;4986699;28;20016;-59
2023/08/06 09:44:30;;;;;;;;;;;16.90;99.90;;;;;;4986638;28;19976;-61
2023/08/06 09:46:57;;;;;;;;;;;17.10;99.90;;;;;;4987287;28;19930;-62
2023/08/06 09:49:28;;;;;;;;;;;17.20;99.90;;;;;;4985496;28;20180;-60
2023/08/06 09:51:58;;;;;;;;;;;17.20;99.90;;;;;;4986949;28;19932;-60
2023/08/06 09:54:26;;;;;;;;;;;17.30;99.90;;;;;;4986874;28;19932;-60
2023/08/06 09:56:54;;;;;;;;;;;17.30;99.90;;;;;;4986961;28;20197;-60
2023/08/06 09:59:21;;;;;;;;;;;17.40;99.90;;;;;;4986194;28;19925;-62
2023/08/06 10:01:47;;;;;;;;;;;17.50;99.90;;;;;;4987209;28;19921;-60
2023/08/06 10:04:16;;;;;;;;;;;17.70;99.90;;;;;;4986113;28;20153;-61
2023/08/06 10:06:50;;;;;;;;;;;17.60;99.90;;;;;;4986823;28;19922;-60
2023/08/06 10:09:18;;;;;;;;;;;17.60;99.90;;;;;;4986379;28;20009;-60
2023/08/06 10:11:47;;;;;;;;;;;17.70;99.90;;;;;;4979796;28;20012;-60
2023/08/06 10:14:33;;;;;;;;;;;17.50;99.90;;;;;;4986118;28;19933;-60
2023/08/06 10:17:00;;;;;;;;;;;17.70;99.90;;;;;;4984903;28;19941;-60
2023/08/06 10:19:26;;;;;;;;;;;17.80;99.90;;;;;;4985882;28;20348;-61
2023/08/06 10:22:13;;;;;;;;;;;17.90;99.90;;;;;;4986607;28;19968;-60
2023/08/06 10:24:45;;;;;;;;;;;17.90;99.90;;;;;;4987683;28;20450;-61
2023/08/06 10:27:12;;;;;;;;;;;17.90;99.90;;;;;;4988506;28;19921;-59
2023/08/06 10:29:39;;;;;;;;;;;17.80;99.90;;;;;;4986060;28;20433;-60
2023/08/06 10:32:05;;;;;;;;;;;17.70;99.90;;;;;;4986532;28;19929;-60
2023/08/06 10:34:51;;;;;;;;;;;18.00;99.90;;;;;;4986615;28;19957;-61
2023/08/06 10:37:18;;;;;;;;;;;18.00;99.90;;;;;;4977252;28;20548;-61
2023/08/06 10:39:49;;;;;;;;;;;18.20;99.90;;;;;;4985920;28;19962;-59
2023/08/06 10:42:22;;;;;;;;;;;18.00;99.90;;;;;;4985885;28;19987;-59
2023/08/06 10:45:07;;;;;;;;;;;17.80;99.90;;;;;;4984709;28;20067;-59
2023/08/06 10:47:38;;;;;;;;;;;17.70;99.90;;;;;;4982692;28;20300;-59
2023/08/06 10:50:16;;;;;;;;;;;17.80;99.90;;;;;;4985706;28;19927;-60
2023/08/06 10:52:44;;;;;;;;;;;17.50;99.90;;;;;;4983890;28;19928;-59
2023/08/06 10:55:10;;;;;;;;;;;17.60;99.90;;;;;;4987063;28;20047;-60
2023/08/06 10:57:37;;;;;;;;;;;17.60;99.90;;;;;;4987385;28;19922;-61
2023/08/06 11:00:04;;;;;;;;;;;17.50;99.90;;;;;;4988374;28;19926;-60
2023/08/06 11:02:42;;;;;;;;;;;17.50;99.90;;;;;;4986539;28;19932;-60
2023/08/06 11:05:09;;;;;;;;;;;17.40;99.90;;;;;;4988449;28;19921;-60
2023/08/06 11:07:35;;;;;;;;;;;17.40;99.90;;;;;;4988668;28;19926;-60
2023/08/06 11:10:06;;;;;;;;;;;17.40;99.90;;;;;;4988540;28;19969;-60
2023/08/06 11:12:32;;;;;;;;;;;17.40;99.90;;;;;;4988738;28;19945;-60
2023/08/06 11:14:59;;;;;;;;;;;17.40;99.90;;;;;;4988850;28;19976;-60
2023/08/06 11:17:27;;;;;;;;;;;17.50;99.90;;;;;;4988121;28;19926;-60
2023/08/06 11:19:54;;;;;;;;;;;17.40;99.90;;;;;;4988628;28;19921;-60
2023/08/06 11:22:21;;;;;;;;;;;17.30;99.90;;;;;;4987198;28;20384;-60
2023/08/06 11:24:48;;;;;;;;;;;17.20;99.90;;;;;;4988277;28;19922;-60
2023/08/06 11:27:16;;;;;;;;;;;17.20;99.90;;;;;;4988055;28;19972;-60
2023/08/06 11:29:43;;;;;;;;;;;17.10;99.90;;;;;;4988560;28;19925;-60
2023/08/06 11:32:10;;;;;;;;;;;17.00;99.90;;;;;;4988598;28;19976;-60
2023/08/06 11:34:37;;;;;;;;;;;17.10;99.90;;;;;;4992165;28;20695;-60
2023/08/06 11:37:06;;;;;;;;;;;17.20;99.90;;;;;;4991649;28;19922;-60
2023/08/06 11:39:33;;;;;;;;;;;17.20;99.90;;;;;;4992513;28;20308;-59
2023/08/06 11:42:02;;;;;;;;;;;17.10;99.90;;;;;;4991882;28;19922;-60
2023/08/06 11:44:35;;;;;;;;;;;17.10;99.90;;;;;;4991839;28;20620;-61
2023/08/06 11:47:04;;;;;;;;;;;17.20;99.90;;;;;;4991507;28;19926;-60
2023/08/06 11:49:40;;;;;;;;;;;17.30;99.90;;;;;;4991859;28;19922;-64
2023/08/06 11:52:11;;;;;;;;;;;17.50;99.90;;;;;;4991776;28;20388;-64
2023/08/06 11:54:38;;;;;;;;;;;17.70;99.90;;;;;;4991877;28;19969;-60
2023/08/06 11:57:05;;;;;;;;;;;17.80;99.90;;;;;;4991586;28;19922;-60
2023/08/06 11:59:32;;;;;;;;;;;17.70;99.90;;;;;;4991974;28;19922;-60
2023/08/06 12:02:02;;;;;;;;;;;17.80;99.90;;;;;;4990750;28;19929;-62
2023/08/06 12:04:29;;;;;;;;;;;18.00;99.90;;;;;;4991601;28;19929;-60
2023/08/06 12:06:56;;;;;;;;;;;18.10;99.90;;;;;;4991633;28;19965;-60
2023/08/06 12:09:22;;;;;;;;;;;17.90;99.90;;;;;;4988506;28;19926;-64
2023/08/06 12:11:49;;;;;;;;;;;18.20;99.90;;;;;;4989601;28;19926;-60
2023/08/06 12:14:16;;;;;;;;;;;18.20;99.90;;;;;;4990389;28;19922;-60
2023/08/06 12:16:42;;;;;;;;;;;18.00;99.90;;;;;;4991499;28;19926;-59
2023/08/06 12:19:09;;;;;;;;;;;18.20;99.90;;;;;;4989668;28;19922;-59
2023/08/06 12:21:36;;;;;;;;;;;18.30;99.90;;;;;;4647190;28;9999749;-60
2023/08/06 12:24:02;;;;;;;;;;;18.40;99.90;;;;;;4988122;28;20400;-60
2023/08/06 12:26:29;;;;;;;;;;;18.30;99.90;;;;;;4991572;28;20316;-59
2023/08/06 12:28:57;;;;;;;;;;;18.50;99.90;;;;;;4991020;28;19948;-59
2023/08/06 12:31:24;;;;;;;;;;;18.40;99.90;;;;;;4992086;28;19922;-60
2023/08/06 12:33:50;;;;;;;;;;;18.40;99.90;;;;;;4991010;28;19968;-60
2023/08/06 12:36:17;;;;;;;;;;;18.50;99.90;;;;;;4991162;28;19922;-59
2023/08/06 12:38:44;;;;;;;;;;;18.40;99.90;;;;;;4991101;28;19934;-60
2023/08/06 12:41:10;;;;;;;;;;;18.40;99.90;;;;;;4990143;28;19968;-60
2023/08/06 12:43:37;;;;;;;;;;;18.30;99.90;;;;;;4990432;28;20389;-59
2023/08/06 12:46:04;;;;;;;;;;;18.30;99.90;;;;;;4990870;28;19929;-59
2023/08/06 12:48:31;;;;;;;;;;;18.50;99.90;;;;;;4990966;28;19928;-60
2023/08/06 12:50:58;;;;;;;;;;;18.50;99.90;;;;;;4990598;28;19996;-60
2023/08/06 12:53:25;;;;;;;;;;;18.50;99.90;;;;;;4991079;28;19926;-60
2023/08/06 12:55:51;;;;;;;;;;;18.50;99.90;;;;;;4990511;28;19992;-61
2023/08/06 12:58:18;;;;;;;;;;;18.50;99.90;;;;;;4990909;28;19922;-61
2023/08/06 13:00:45;;;;;;;;;;;18.50;99.90;;;;;;4990535;28;19922;-59
2023/08/06 13:03:12;;;;;;;;;;;18.30;99.90;;;;;;4991135;28;20172;-60
2023/08/06 13:05:38;;;;;;;;;;;18.40;99.90;;;;;;4989863;28;19921;-60
2023/08/06 13:08:05;;;;;;;;;;;18.70;99.90;;;;;;4990785;28;20388;-60
2023/08/06 13:10:32;;;;;;;;;;;18.70;99.90;;;;;;4990707;28;20331;-60
2023/08/06 13:12:59;;;;;;;;;;;18.40;99.90;;;;;;4990646;28;19925;-60
2023/08/06 13:15:26;;;;;;;;;;;18.30;99.90;;;;;;4989988;28;19926;-60
2023/08/06 13:17:52;;;;;;;;;;;18.50;99.90;;;;;;4989865;28;19929;-60
2023/08/06 13:20:19;;;;;;;;;;;18.50;99.90;;;;;;4990152;28;19956;-60
2023/08/06 13:22:50;;;;;;;;;;;18.30;99.90;;;;;;4990464;28;20380;-61
2023/08/06 13:25:17;;;;;;;;;;;18.20;99.90;;;;;;4989629;28;19961;-59
2023/08/06 13:27:44;;;;;;;;;;;18.10;99.90;;;;;;4990630;28;19922;-60
2023/08/06 13:30:11;;;;;;;;;;;17.90;99.90;;;;;;4990052;28;19921;-59
2023/08/06 13:32:38;;;;;;;;;;;17.80;99.90;;;;;;4990498;28;19930;-60
2023/08/06 13:35:04;;;;;;;;;;;17.70;99.90;;;;;;4990129;28;19928;-59
2023/08/06 13:37:31;;;;;;;;;;;17.40;99.90;;;;;;4989951;28;19926;-60
2023/08/06 13:39:58;;;;;;;;;;;17.30;99.90;;;;;;4989740;28;19930;-60
2023/08/06 13:42:24;;;;;;;;;;;17.10;99.90;;;;;;4989812;28;19937;-60
2023/08/06 13:44:51;;;;;;;;;;;17.20;99.90;;;;;;4989850;28;19968;-61
2023/08/06 13:47:18;;;;;;;;;;;17.40;99.90;;;;;;4989417;28;20419;-59
2023/08/06 13:49:44;;;;;;;;;;;17.60;99.90;;;;;;4989729;28;19968;-59
2023/08/06 13:52:11;;;;;;;;;;;17.60;99.90;;;;;;4989584;28;19970;-59
2023/08/06 13:54:47;;;;;;;;;;;17.60;99.90;;;;;;4989986;28;19964;-59
2023/08/06 13:57:14;;;;;;;;;;;17.80;99.90;;;;;;4988443;28;20276;-59
2023/08/06 13:59:41;;;;;;;;;;;17.80;99.90;;;;;;4989881;28;19922;-60
2023/08/06 14:02:07;;;;;;;;;;;17.90;99.90;;;;;;4988638;28;19961;-60
2023/08/06 14:04:34;;;;;;;;;;;18.00;99.90;;;;;;4989894;28;19984;-60
2023/08/06 14:07:01;;;;;;;;;;;18.00;99.90;;;;;;4989141;28;19922;-60
2023/08/06 14:09:27;;;;;;;;;;;18.00;99.90;;;;;;4989880;28;19984;-60
2023/08/06 14:11:55;;;;;;;;;;;18.40;99.90;;;;;;4988076;28;19961;-60
2023/08/06 14:14:25;;;;;;;;;;;18.70;99.90;;;;;;4990755;28;20070;-60
2023/08/06 14:16:53;;;;;;;;;;;18.90;99.90;;;;;;4988768;28;19928;-60
2023/08/06 14:19:20;;;;;;;;;;;19.50;99.90;;;;;;4989170;28;20321;-60